Time;durP1;ratioP1;P1;durP2;ratioP2;P2;SDS_P1;SDS_P2;PMS_P1;PMS_P2;Temp;Humidity;BMP_temperature;BMP_pressure;BME280_temperature;BME280_humidity;BME280_pressure;Samples;Min_cycle;Max_cycle;Signal;HPM_P1;HPM_P2
2023/07/12 00:14:35;;;;;;;13.50;8.10;;;23.60;90.50;;;;;;6215388;22;20085;-83
2023/07/12 00:21:39;;;;;;;13.77;7.30;;;23.80;90.30;;;;;;6067018;23;20513;-82
2023/07/12 00:24:16;;;;;;;10.55;7.70;;;23.50;89.60;;;;;;6093020;23;20105;-83
2023/07/12 00:27:08;;;;;;;12.80;6.75;;;23.50;88.60;;;;;;6046925;23;20457;-81
2023/07/12 00:35:02;;;;;;;13.45;5.82;;;23.40;85.60;;;;;;5928547;23;20621;-82
2023/07/12 00:38:10;;;;;;;10.68;5.47;;;24.00;85.80;;;;;;6073600;23;20669;-82
2023/07/12 00:41:28;;;;;;;10.48;5.57;;;23.40;84.70;;;;;;6075417;23;20026;-81
2023/07/12 00:44:30;;;;;;;9.00;5.25;;;23.40;83.60;;;;;;6080269;23;20027;-82
2023/07/12 00:47:12;;;;;;;8.40;4.88;;;23.40;83.00;;;;;;6080427;23;20026;-82
2023/07/12 00:49:51;;;;;;;7.75;5.10;;;23.40;84.00;;;;;;6084404;23;20035;-83
2023/07/12 00:52:31;;;;;;;9.65;4.85;;;23.30;83.60;;;;;;6059043;23;20450;-83
2023/07/12 00:55:01;;;;;;;8.75;4.30;;;23.30;82.60;;;;;;6083659;23;20026;-82
2023/07/12 00:57:43;;;;;;;8.73;4.88;;;23.20;82.10;;;;;;6083064;23;20053;-82
2023/07/12 01:00:21;;;;;;;7.30;4.35;;;23.20;82.10;;;;;;6056711;23;20024;-81
2023/07/12 01:02:52;;;;;;;6.15;4.10;;;23.20;82.20;;;;;;6082549;23;20029;-81
2023/07/12 01:05:22;;;;;;;10.52;3.78;;;23.20;82.60;;;;;;6082848;23;20026;-83
2023/07/12 01:07:50;;;;;;;7.55;4.15;;;23.10;81.20;;;;;;6084700;23;20690;-82
2023/07/12 01:10:34;;;;;;;6.88;3.72;;;23.10;81.60;;;;;;6061636;23;20186;-84
2023/07/12 01:13:12;;;;;;;5.60;3.75;;;22.90;81.60;;;;;;6089333;23;20026;-85
2023/07/12 01:15:42;;;;;;;7.28;3.72;;;23.00;81.20;;;;;;6089514;23;20105;-84
2023/07/12 01:18:50;;;;;;;11.00;3.70;;;22.90;81.30;;;;;;6121498;23;20025;-86
2023/07/12 01:21:31;;;;;;;6.35;3.63;;;22.70;81.40;;;;;;6086587;23;20026;-86
2023/07/12 01:24:24;;;;;;;5.55;3.28;;;22.80;81.90;;;;;;6083824;23;20045;-84
2023/07/12 01:26:57;;;;;;;8.07;3.58;;;22.80;81.90;;;;;;6084068;23;20349;-85
2023/07/12 01:29:40;;;;;;;6.93;3.85;;;22.70;82.00;;;;;;6062181;23;20101;-87
2023/07/12 01:32:18;;;;;;;8.07;3.45;;;22.60;82.40;;;;;;6085494;23;20031;-83
2023/07/12 01:34:58;;;;;;;6.40;3.75;;;22.70;82.70;;;;;;6061395;23;20018;-84
2023/07/12 01:38:06;;;;;;;5.40;2.83;;;22.70;83.40;;;;;;6057902;23;20034;-82
2023/07/12 01:40:57;;;;;;;8.70;4.22;;;22.80;83.30;;;;;;6078880;23;20018;-80
2023/07/12 01:43:37;;;;;;;7.80;4.05;;;22.70;83.00;;;;;;6082064;23;20036;-82
2023/07/12 01:46:33;;;;;;;11.02;4.40;;;22.70;83.70;;;;;;6083438;23;20026;-83
2023/07/12 01:49:18;;;;;;;5.97;3.35;;;22.70;84.00;;;;;;6033599;23;20030;-82
2023/07/12 01:52:13;;;;;;;6.80;3.20;;;22.70;84.30;;;;;;6085962;23;20161;-81
2023/07/12 01:54:52;;;;;;;4.85;3.30;;;22.50;84.00;;;;;;6100904;23;20026;-82
2023/07/12 01:57:22;;;;;;;6.03;3.38;;;22.60;84.10;;;;;;6139747;23;20025;-83
2023/07/12 02:00:27;;;;;;;5.30;3.30;;;22.60;84.00;;;;;;6120687;23;20029;-81
2023/07/12 02:02:54;;;;;;;6.13;3.30;;;22.70;84.20;;;;;;6140253;23;20026;-82
2023/07/12 02:06:16;;;;;;;5.53;3.00;;;22.60;84.20;;;;;;6134394;23;20030;-83
2023/07/12 02:09:20;;;;;;;6.38;3.30;;;22.70;84.30;;;;;;6105871;23;20032;-82
2023/07/12 02:12:30;;;;;;;6.35;3.70;;;22.70;84.30;;;;;;6138300;23;20021;-83
2023/07/12 02:15:15;;;;;;;6.63;4.45;;;22.70;84.50;;;;;;6063094;23;20077;-82
2023/07/12 02:18:39;;;;;;;6.78;3.60;;;22.70;84.60;;;;;;6106460;23;20737;-81
2023/07/12 02:22:27;;;;;;;8.13;3.25;;;22.90;84.80;;;;;;6084752;23;20030;-82
2023/07/12 02:26:29;;;;;;;5.85;3.88;;;22.70;84.70;;;;;;6033791;23;20125;-82
2023/07/12 02:34:28;;;;;;;4.88;3.10;;;22.10;84.70;;;;;;5882362;24;20504;-83
2023/07/12 02:37:00;;;;;;;5.32;3.60;;;22.50;85.10;;;;;;5942933;24;20029;-82
2023/07/12 02:40:44;;;;;;;7.22;3.92;;;22.50;86.00;;;;;;5908542;24;20202;-83
2023/07/12 02:44:00;;;;;;;5.30;3.30;;;22.50;85.60;;;;;;5829055;24;20041;-83
2023/07/12 02:46:55;;;;;;;5.47;3.42;;;22.40;86.10;;;;;;5780798;24;20286;-83
2023/07/12 02:53:59;;;;;;;5.15;3.15;;;22.70;86.40;;;;;;5880192;24;20036;-81
2023/07/12 03:01:34;;;;;;;6.40;3.38;;;22.30;86.90;;;;;;6006788;23;20023;-83
2023/07/12 03:04:31;;;;;;;8.98;3.50;;;22.30;87.70;;;;;;5860263;24;20030;-82
2023/07/12 03:08:03;;;;;;;8.50;3.80;;;22.30;87.60;;;;;;5858906;24;20026;-84
2023/07/12 03:11:00;;;;;;;7.10;3.78;;;22.30;87.70;;;;;;5885844;24;20140;-81
2023/07/12 03:13:30;;;;;;;8.57;3.55;;;22.30;87.70;;;;;;5887181;24;20029;-86
2023/07/12 03:16:38;;;;;;;7.70;3.97;;;22.20;88.10;;;;;;5941531;24;20029;-82
2023/07/12 03:19:19;;;;;;;10.53;4.40;;;22.30;89.00;;;;;;6027247;23;20533;-86
2023/07/12 03:21:47;;;;;;;8.73;3.95;;;22.20;88.80;;;;;;6003838;23;20027;-83
2023/07/12 03:24:14;;;;;;;6.80;3.97;;;22.10;89.30;;;;;;6002726;23;20029;-84
2023/07/12 03:26:44;;;;;;;6.63;3.78;;;22.20;89.50;;;;;;5983453;23;20056;-86
2023/07/12 03:29:36;;;;;;;6.65;4.38;;;22.10;89.50;;;;;;6005076;23;20130;-82
2023/07/12 03:32:29;;;;;;;8.20;4.18;;;22.00;89.60;;;;;;5996926;23;20035;-87
2023/07/12 03:35:01;;;;;;;6.00;3.90;;;22.10;90.00;;;;;;6027844;23;20027;-82
2023/07/12 03:37:29;;;;;;;6.35;4.25;;;22.10;90.20;;;;;;6003087;23;20036;-82
2023/07/12 03:40:31;;;;;;;;;;;;;;;;;;;;;
2023/07/12 03:43:16;;;;;;;8.98;4.10;;;22.10;90.10;;;;;;6027171;23;20027;-83
2023/07/12 03:45:56;;;;;;;;;;;;;;;;;;;;;
2023/07/12 03:48:55;;;;;;;5.75;4.07;;;22.20;90.30;;;;;;6028058;23;20050;-85
2023/07/12 03:51:59;;;;;;;6.57;4.35;;;22.20;90.30;;;;;;6024562;23;20369;-83
2023/07/12 03:54:29;;;;;;;7.80;3.80;;;22.30;90.50;;;;;;6003925;23;20051;-88
2023/07/12 03:57:33;;;;;;;6.28;4.00;;;22.20;90.40;;;;;;6003858;23;20122;-87
2023/07/12 04:00:43;;;;;;;7.50;4.40;;;21.80;90.50;;;;;;5999735;23;20122;-84
2023/07/12 04:03:48;;;;;;;8.40;4.38;;;22.20;90.80;;;;;;5979530;23;20036;-83
2023/07/12 04:10:20;;;;;;;9.38;4.68;;;22.30;90.80;;;;;;6003227;23;20023;-83
2023/07/12 04:13:12;;;;;;;6.45;4.40;;;22.20;90.50;;;;;;5996105;23;20030;-83
2023/07/12 04:15:40;;;;;;;7.55;4.78;;;22.40;90.50;;;;;;5955717;23;20113;-87
2023/07/12 04:22:56;;;;;;;7.20;4.53;;;22.40;90.40;;;;;;5938307;24;20024;-83
2023/07/12 04:25:23;;;;;;;7.20;4.53;;;22.70;90.60;;;;;;5919686;24;20025;-88
2023/07/12 04:27:51;;;;;;;7.22;4.63;;;22.60;90.30;;;;;;5951689;24;20024;-85
2023/07/12 04:31:07;;;;;;;;;;;;;;;;;;;;;
2023/07/12 04:37:51;;;;;;;8.98;4.75;;;22.40;90.10;;;;;;6041351;23;20234;-85
2023/07/12 04:40:59;;;;;;;8.25;5.07;;;22.70;90.20;;;;;;6084677;23;20030;-83
2023/07/12 04:44:18;;;;;;;6.90;5.05;;;22.70;90.30;;;;;;6035949;23;20038;-83
2023/07/12 04:46:55;;;;;;;5.88;4.80;;;22.90;90.20;;;;;;6037414;23;20050;-82
2023/07/12 04:49:25;;;;;;;5.32;3.80;;;22.70;90.30;;;;;;6084077;23;20512;-85
2023/07/12 04:51:59;;;;;;;8.50;4.82;;;22.80;90.30;;;;;;6085717;23;20525;-88
2023/07/12 04:58:56;;;;;;;6.15;4.60;;;22.80;90.30;;;;;;6084939;23;20015;-87
2023/07/12 05:01:30;;;;;;;10.25;4.60;;;22.80;90.40;;;;;;6062965;23;20051;-89
2023/07/12 05:04:45;;;;;;;;;;;;;;;;;;;;;
2023/07/12 05:08:28;;;;;;;6.88;4.55;;;22.80;90.60;;;;;;5917677;24;20025;-87
2023/07/12 05:11:40;;;;;;;7.10;4.78;;;23.20;90.40;;;;;;5892645;24;20056;-84
2023/07/12 05:14:21;;;;;;;7.75;4.95;;;22.90;89.80;;;;;;5904618;24;20033;-85
2023/07/12 05:17:08;;;;;;;6.97;4.68;;;23.40;89.80;;;;;;5890166;24;20170;-81
2023/07/12 05:20:12;;;;;;;7.90;4.65;;;23.50;89.80;;;;;;5896778;24;20033;-82
2023/07/12 05:22:57;;;;;;;6.25;4.50;;;23.60;89.10;;;;;;5918455;24;20672;-84
2023/07/12 05:25:52;;;;;;;8.98;5.20;;;23.70;88.50;;;;;;5927085;23;20059;-84
2023/07/12 05:29:05;;;;;;;6.97;4.60;;;23.60;89.30;;;;;;5982820;23;20034;-88
2023/07/12 05:35:38;;;;;;;7.93;5.40;;;23.50;88.90;;;;;;6031228;23;20019;-91
2023/07/12 05:38:20;;;;;;;12.50;4.75;;;23.60;89.60;;;;;;6004430;23;20106;-88
2023/07/12 05:40:50;;;;;;;9.60;4.97;;;23.60;88.80;;;;;;6007527;23;20735;-85
2023/07/12 05:44:50;;;;;;;8.88;5.07;;;23.60;89.40;;;;;;6055894;23;20129;-84
2023/07/12 05:48:19;;;;;;;9.75;4.95;;;24.00;88.00;;;;;;6141728;23;20088;-85
2023/07/12 05:51:12;;;;;;;7.30;4.40;;;24.40;87.60;;;;;;5898873;24;20056;-88
2023/07/12 05:53:55;;;;;;;7.60;5.18;;;24.50;86.50;;;;;;5914963;24;20119;-83
2023/07/12 05:56:33;;;;;;;8.05;4.78;;;24.40;85.90;;;;;;5962744;24;20028;-84
2023/07/12 06:00:35;;;;;;;;;;;;;;;;;;;;;
2023/07/12 06:03:42;;;;;;;8.20;4.53;;;24.40;85.40;;;;;;5891370;24;20171;-85
2023/07/12 06:06:27;;;;;;;10.32;4.60;;;24.30;86.40;;;;;;5913772;24;20036;-84
2023/07/12 06:13:47;;;;;;;6.90;4.68;;;24.00;86.60;;;;;;6250927;22;20038;-87
2023/07/12 06:16:15;;;;;;;8.60;4.90;;;24.00;85.90;;;;;;6260114;22;20425;-87
2023/07/12 06:19:03;;;;;;;6.45;4.55;;;24.20;86.30;;;;;;6258065;22;20098;-88
2023/07/12 06:21:30;;;;;;;7.10;4.82;;;24.70;85.10;;;;;;6235794;22;20539;-86
2023/07/12 06:23:59;;;;;;;6.88;4.75;;;25.00;83.00;;;;;;6257450;22;20074;-83
2023/07/12 06:26:30;;;;;;;7.95;4.80;;;25.30;82.50;;;;;;6232160;22;20027;-88
2023/07/12 06:28:57;;;;;;;6.65;3.75;;;25.50;81.70;;;;;;6258839;22;20112;-82
2023/07/12 06:31:24;;;;;;;8.13;4.15;;;25.70;79.90;;;;;;6257142;22;20030;-86
2023/07/12 06:33:52;;;;;;;7.00;4.32;;;25.90;79.00;;;;;;6258245;22;20835;-84
2023/07/12 06:36:39;;;;;;;7.18;4.28;;;26.10;78.60;;;;;;6217621;23;20024;-84
2023/07/12 06:39:06;;;;;;;7.22;5.10;;;26.30;78.10;;;;;;6171534;23;20021;-86
2023/07/12 06:41:33;;;;;;;8.55;4.88;;;26.20;77.60;;;;;;6170727;23;20020;-82
2023/07/12 06:44:00;;;;;;;6.95;4.25;;;26.40;77.90;;;;;;6193716;23;20465;-87
2023/07/12 06:46:28;;;;;;;8.70;4.90;;;26.40;78.40;;;;;;6192344;23;20123;-87
2023/07/12 06:48:55;;;;;;;7.45;4.22;;;26.60;77.00;;;;;;6198610;23;20028;-87
2023/07/12 06:51:22;;;;;;;7.15;4.25;;;26.80;77.10;;;;;;6223140;23;20034;-85
2023/07/12 06:53:49;;;;;;;6.30;4.28;;;27.00;76.50;;;;;;6170953;23;20516;-85
2023/07/12 06:56:16;;;;;;;9.63;4.50;;;27.10;76.30;;;;;;6185443;23;20535;-86
2023/07/12 06:58:43;;;;;;;9.13;5.15;;;27.20;75.80;;;;;;6178218;23;20072;-88
2023/07/12 07:01:13;;;;;;;7.28;5.07;;;27.30;75.60;;;;;;6200665;23;20367;-88
2023/07/12 07:03:40;;;;;;;6.63;4.90;;;27.40;76.90;;;;;;6226609;23;20027;-87
2023/07/12 07:06:07;;;;;;;5.40;4.10;;;27.50;76.20;;;;;;6206857;23;20391;-87
2023/07/12 07:08:36;;;;;;;6.55;4.10;;;27.60;75.50;;;;;;6228913;22;20024;-88
2023/07/12 07:11:03;;;;;;;8.40;4.63;;;27.70;75.70;;;;;;6264075;22;20023;-85
2023/07/12 07:13:30;;;;;;;9.45;5.20;;;27.70;75.20;;;;;;6263089;22;20024;-83
2023/07/12 07:15:58;;;;;;;7.15;4.75;;;27.80;75.40;;;;;;6265318;22;20477;-84
2023/07/12 07:18:25;;;;;;;9.50;5.72;;;27.90;76.40;;;;;;6266231;22;20024;-83
2023/07/12 07:20:52;;;;;;;9.07;6.00;;;27.90;75.90;;;;;;6241871;22;20027;-85
2023/07/12 07:23:20;;;;;;;8.68;6.20;;;27.90;75.40;;;;;;6260613;22;20507;-87
2023/07/12 07:25:47;;;;;;;8.10;5.68;;;28.10;76.10;;;;;;6266899;22;20023;-86
2023/07/12 07:28:15;;;;;;;9.40;5.95;;;28.30;76.20;;;;;;6239215;22;20043;-87
2023/07/12 07:30:42;;;;;;;10.48;5.72;;;28.30;75.70;;;;;;6261842;22;20422;-87
2023/07/12 07:33:09;;;;;;;8.68;6.10;;;28.40;75.50;;;;;;6259813;22;20055;-86
2023/07/12 07:35:37;;;;;;;10.55;6.10;;;28.50;75.80;;;;;;6264796;22;20011;-85
2023/07/12 07:38:04;;;;;;;7.35;5.88;;;28.70;75.30;;;;;;6243340;22;20019;-84
2023/07/12 07:40:31;;;;;;;9.70;6.07;;;28.70;74.40;;;;;;6266879;22;20110;-86
2023/07/12 07:42:58;;;;;;;13.35;6.85;;;28.70;74.60;;;;;;6265420;22;20028;-83
2023/07/12 07:45:25;;;;;;;12.25;6.13;;;28.80;76.60;;;;;;6266076;22;20422;-86
2023/07/12 07:47:52;;;;;;;8.35;7.07;;;29.00;75.70;;;;;;6265538;22;20368;-85
2023/07/12 07:50:20;;;;;;;10.05;6.72;;;28.90;75.40;;;;;;6261087;22;20028;-89
2023/07/12 07:52:48;;;;;;;12.02;5.90;;;29.00;75.80;;;;;;6262375;22;20445;-84
2023/07/12 07:55:15;;;;;;;8.10;5.63;;;29.00;76.50;;;;;;6267622;22;20103;-83
2023/07/12 07:57:42;;;;;;;10.18;7.47;;;29.10;75.40;;;;;;6242625;22;20110;-85
2023/07/12 08:00:11;;;;;;;9.40;6.07;;;29.20;75.10;;;;;;6269691;22;20423;-84
2023/07/12 08:02:39;;;;;;;8.07;6.35;;;29.30;74.90;;;;;;6269456;22;20057;-86
2023/07/12 08:05:06;;;;;;;10.55;5.75;;;29.30;74.70;;;;;;6269990;22;20020;-82
2023/07/12 08:07:39;;;;;;;11.90;7.20;;;29.30;75.10;;;;;;6268824;22;20015;-85
2023/07/12 08:10:08;;;;;;;9.60;6.25;;;29.20;75.30;;;;;;6268837;22;20518;-86
2023/07/12 08:12:36;;;;;;;10.50;6.70;;;29.40;75.40;;;;;;6267251;22;20031;-86
2023/07/12 08:15:04;;;;;;;10.57;6.65;;;29.50;75.40;;;;;;6269519;22;20026;-86
2023/07/12 08:17:31;;;;;;;12.45;6.65;;;29.70;75.10;;;;;;6268058;22;20019;-83
2023/07/12 08:19:59;;;;;;;11.80;6.43;;;29.60;75.20;;;;;;6265754;22;20026;-86
2023/07/12 08:22:26;;;;;;;15.70;7.20;;;29.60;74.90;;;;;;6243324;22;20081;-85
2023/07/12 08:24:53;;;;;;;10.10;7.18;;;29.80;75.50;;;;;;6267726;22;20127;-84
2023/07/12 08:27:20;;;;;;;11.35;7.00;;;29.50;73.60;;;;;;6240594;22;20485;-83
2023/07/12 08:29:47;;;;;;;9.73;6.53;;;29.60;75.50;;;;;;6241554;22;20034;-84
2023/07/12 08:32:15;;;;;;;11.82;6.43;;;29.70;75.00;;;;;;6265606;22;20549;-80
2023/07/12 08:34:42;;;;;;;8.30;6.22;;;29.90;75.10;;;;;;6265888;22;20452;-83
2023/07/12 08:37:09;;;;;;;8.88;6.53;;;30.10;75.20;;;;;;6266935;22;20047;-85
2023/07/12 08:39:36;;;;;;;9.55;6.57;;;30.10;75.30;;;;;;6242488;22;20016;-81
2023/07/12 08:42:13;;;;;;;10.70;6.38;;;29.90;75.30;;;;;;6243876;22;20103;-84
2023/07/12 08:44:40;;;;;;;9.45;7.00;;;29.80;75.80;;;;;;6267930;22;20027;-85
2023/07/12 08:47:16;;;;;;;10.20;6.43;;;29.70;75.80;;;;;;6241335;22;20054;-82
2023/07/12 08:49:43;;;;;;;10.68;7.40;;;29.70;75.90;;;;;;6241074;22;20027;-83
2023/07/12 08:52:17;;;;;;;13.20;6.90;;;29.80;76.10;;;;;;6266934;22;20445;-86
2023/07/12 08:54:44;;;;;;;9.52;7.18;;;30.00;76.60;;;;;;6262831;22;20098;-87
2023/07/12 08:57:17;;;;;;;10.57;7.03;;;30.30;76.90;;;;;;6266841;22;20019;-84
2023/07/12 09:00:07;;;;;;;10.13;6.15;;;30.50;74.90;;;;;;6263464;22;20037;-81
2023/07/12 09:02:34;;;;;;;10.00;6.95;;;30.40;74.50;;;;;;6264776;22;20016;-85
2023/07/12 09:05:17;;;;;;;11.48;7.00;;;30.60;75.10;;;;;;6266020;22;20023;-86
2023/07/12 09:07:53;;;;;;;11.52;7.90;;;30.50;75.00;;;;;;6264322;22;20110;-85
2023/07/12 09:10:40;;;;;;;14.32;8.02;;;30.40;75.30;;;;;;6266591;22;20020;-86
2023/07/12 09:13:10;;;;;;;9.80;7.20;;;30.40;75.90;;;;;;6265496;22;20020;-85
2023/07/12 09:15:42;;;;;;;9.07;7.47;;;30.50;76.00;;;;;;6269049;22;20026;-84
2023/07/12 09:18:28;;;;;;;9.95;7.65;;;30.70;76.60;;;;;;6264764;22;20028;-85
2023/07/12 09:20:58;;;;;;;12.25;7.97;;;30.60;75.60;;;;;;6265480;22;20028;-81
2023/07/12 09:23:37;;;;;;;12.85;7.68;;;30.50;74.90;;;;;;6240953;22;20019;-84
2023/07/12 09:26:20;;;;;;;9.70;7.80;;;30.50;76.00;;;;;;6265490;22;20478;-85
2023/07/12 09:28:49;;;;;;;11.13;7.32;;;30.60;76.90;;;;;;6266561;22;20487;-85
2023/07/12 09:31:21;;;;;;;11.65;8.02;;;30.50;75.50;;;;;;6264963;22;20024;-86
2023/07/12 09:34:00;;;;;;;11.48;7.68;;;30.40;75.60;;;;;;6264800;22;20325;-84
2023/07/12 09:36:27;;;;;;;9.20;6.78;;;30.50;77.40;;;;;;6265197;22;20054;-82
2023/07/12 09:39:01;;;;;;;10.32;7.63;;;30.90;77.40;;;;;;6263230;22;20022;-84
2023/07/12 09:41:28;;;;;;;9.15;6.95;;;30.70;75.40;;;;;;6261382;22;20433;-85
2023/07/12 09:43:58;;;;;;;9.95;6.57;;;30.80;76.00;;;;;;6240666;22;20341;-84
2023/07/12 09:46:41;;;;;;;9.68;7.78;;;30.70;77.50;;;;;;6234888;22;20061;-84
2023/07/12 09:49:35;;;;;;;10.18;7.65;;;30.80;76.60;;;;;;6262665;22;20024;-86
2023/07/12 09:52:27;;;;;;;14.65;7.65;;;30.90;76.40;;;;;;6236887;22;20035;-85
2023/07/12 09:54:54;;;;;;;10.40;7.28;;;30.90;76.00;;;;;;6237889;22;20040;-85
2023/07/12 09:57:37;;;;;;;11.35;7.55;;;30.90;74.80;;;;;;6238304;22;20076;-83
2023/07/12 10:00:11;;;;;;;9.93;7.38;;;30.70;77.80;;;;;;6264927;22;20020;-85
2023/07/12 10:02:42;;;;;;;10.20;7.93;;;30.60;78.30;;;;;;6238840;22;20022;-85
2023/07/12 10:05:19;;;;;;;10.68;7.88;;;30.50;77.20;;;;;;6238945;22;20507;-84
2023/07/12 10:08:01;;;;;;;10.35;8.00;;;30.40;76.60;;;;;;6265435;22;20027;-84
2023/07/12 10:10:38;;;;;;;;;;;30.30;77.10;;;;;;6264040;22;20115;-86
2023/07/12 10:13:42;;;;;;;9.52;8.00;;;30.40;78.50;;;;;;6240347;22;19919;-85
2023/07/12 10:16:26;;;;;;;12.30;8.30;;;30.30;76.80;;;;;;6239304;22;20081;-83
2023/07/12 10:18:55;;;;;;;14.40;8.50;;;30.50;78.20;;;;;;6265603;22;20023;-84
2023/07/12 10:21:25;;;;;;;10.32;8.35;;;30.70;75.80;;;;;;6267517;22;20012;-85
2023/07/12 10:24:02;;;;;;;13.20;8.38;;;30.80;75.80;;;;;;6265048;22;20115;-84
2023/07/12 10:26:31;;;;;;;13.82;8.23;;;31.10;77.10;;;;;;6241970;22;20043;-86
2023/07/12 10:29:48;;;;;;;11.23;8.93;;;31.20;78.70;;;;;;6262346;22;20039;-84
2023/07/12 10:32:21;;;;;;;14.20;9.00;;;31.20;75.40;;;;;;6174154;22;20024;-84
2023/07/12 10:35:29;;;;;;;12.95;9.23;;;31.10;76.60;;;;;;6262593;22;20485;-86
2023/07/12 10:38:04;;;;;;;14.00;8.60;;;31.20;76.90;;;;;;6237421;22;20027;-85
2023/07/12 10:40:42;;;;;;;12.23;8.60;;;31.00;76.10;;;;;;6239417;22;20020;-85
2023/07/12 10:43:33;;;;;;;10.27;8.13;;;31.10;76.60;;;;;;6239685;22;20080;-85
2023/07/12 10:46:29;;;;;;;10.75;8.27;;;31.00;75.20;;;;;;6236990;22;20019;-84
2023/07/12 10:48:58;;;;;;;10.95;7.10;;;31.10;74.90;;;;;;6263378;22;20071;-84
2023/07/12 10:51:31;;;;;;;9.98;8.48;;;31.20;75.90;;;;;;6265087;22;20046;-87
2023/07/12 10:53:58;;;;;;;14.02;9.25;;;31.20;76.30;;;;;;6262398;22;20293;-84
2023/07/12 10:56:49;;;;;;;14.90;8.68;;;31.10;74.00;;;;;;6233492;22;20705;-85
2023/07/12 10:59:32;;;;;;;14.50;8.43;;;31.20;75.70;;;;;;6238691;22;20023;-86
2023/07/12 11:02:05;;;;;;;11.10;8.00;;;31.20;75.00;;;;;;6263500;22;20514;-83
2023/07/12 11:04:47;;;;;;;11.57;9.35;;;31.30;75.10;;;;;;6266318;22;20454;-86
2023/07/12 11:07:14;;;;;;;11.98;8.52;;;31.40;75.00;;;;;;6238453;22;20027;-86
2023/07/12 11:09:47;;;;;;;16.05;8.63;;;31.40;74.50;;;;;;6264506;22;20085;-85
2023/07/12 11:12:27;;;;;;;14.13;8.65;;;31.10;75.50;;;;;;6263938;22;20380;-86
2023/07/12 11:15:12;;;;;;;13.80;9.25;;;31.20;75.10;;;;;;6265002;22;20019;-87
2023/07/12 11:18:01;;;;;;;11.88;8.50;;;31.40;73.80;;;;;;6238863;22;20020;-87
2023/07/12 11:20:35;;;;;;;15.18;8.70;;;31.30;75.20;;;;;;6239021;22;20034;-86
2023/07/12 11:23:05;;;;;;;15.95;9.23;;;31.20;74.60;;;;;;6239580;22;20443;-87
2023/07/12 11:25:37;;;;;;;14.55;8.98;;;31.30;74.90;;;;;;6263713;22;20015;-86
2023/07/12 11:28:28;;;;;;;11.95;8.63;;;31.60;75.50;;;;;;6263125;22;20085;-85
2023/07/12 11:31:17;;;;;;;13.93;9.35;;;31.50;73.30;;;;;;6263251;22;20110;-86
2023/07/12 11:34:12;;;;;;;11.07;9.02;;;31.50;73.60;;;;;;6236967;22;20465;-85
2023/07/12 11:36:40;;;;;;;12.98;8.90;;;31.40;74.10;;;;;;6261572;22;20054;-86
2023/07/12 11:39:20;;;;;;;14.70;9.32;;;31.50;75.80;;;;;;6262049;22;20347;-86
2023/07/12 11:42:00;;;;;;;17.40;9.07;;;31.70;75.40;;;;;;6262841;22;20078;-85
2023/07/12 11:44:28;;;;;;;13.68;9.13;;;31.60;72.90;;;;;;6240022;22;20724;-87
2023/07/12 11:46:57;;;;;;;13.23;8.82;;;31.60;73.10;;;;;;6261981;22;20032;-85
2023/07/12 11:49:30;;;;;;;12.48;8.80;;;31.70;74.00;;;;;;6263456;22;20081;-84
2023/07/12 11:52:02;;;;;;;13.27;8.70;;;31.70;72.40;;;;;;6238423;22;20138;-85
2023/07/12 11:54:37;;;;;;;12.13;8.45;;;31.70;72.50;;;;;;6260447;22;20069;-82
2023/07/12 11:57:11;;;;;;;13.23;9.02;;;31.60;72.70;;;;;;6259457;22;20043;-85
2023/07/12 11:59:41;;;;;;;13.00;8.85;;;31.70;71.60;;;;;;6229056;23;20475;-82
2023/07/12 12:02:18;;;;;;;13.50;8.88;;;31.70;72.00;;;;;;6228780;23;20034;-87
2023/07/12 12:04:49;;;;;;;14.75;8.23;;;31.70;71.00;;;;;;6230639;23;20024;-84
2023/07/12 12:07:37;;;;;;;12.00;7.72;;;31.60;71.40;;;;;;6204749;23;20115;-84
2023/07/12 12:10:06;;;;;;;9.55;8.10;;;31.70;71.40;;;;;;6230913;23;20023;-85
2023/07/12 12:12:34;;;;;;;11.88;8.30;;;31.70;70.20;;;;;;6205210;23;20452;-86
2023/07/12 12:15:01;;;;;;;12.05;7.30;;;31.70;70.90;;;;;;6234101;22;20016;-86
2023/07/12 12:17:35;;;;;;;9.57;7.72;;;31.80;72.60;;;;;;6231288;23;20508;-84
2023/07/12 12:20:12;;;;;;;11.38;8.25;;;31.90;71.20;;;;;;6204156;23;20106;-85
2023/07/12 12:22:42;;;;;;;10.02;7.15;;;31.90;70.00;;;;;;6202251;23;20030;-85
2023/07/12 12:25:30;;;;;;;8.93;7.18;;;31.90;70.50;;;;;;6227369;23;20028;-86
2023/07/12 12:27:58;;;;;;;8.68;6.65;;;32.00;68.50;;;;;;6230530;23;20062;-83
2023/07/12 12:30:29;;;;;;;10.25;6.38;;;32.00;67.10;;;;;;6213376;22;20585;-85
2023/07/12 12:33:21;;;;;;;10.35;6.35;;;31.90;67.60;;;;;;6243616;22;20602;-86
2023/07/12 12:35:58;;;;;;;10.80;7.78;;;31.90;68.50;;;;;;6261219;22;20070;-86
2023/07/12 12:38:28;;;;;;;11.07;7.97;;;32.10;69.70;;;;;;6258861;22;20122;-86
2023/07/12 12:41:11;;;;;;;11.35;7.95;;;32.00;69.00;;;;;;6261823;22;20051;-85
2023/07/12 12:43:57;;;;;;;10.95;7.88;;;31.90;70.00;;;;;;6265569;22;20046;-85
2023/07/12 12:46:24;;;;;;;9.48;7.68;;;31.80;70.60;;;;;;6264070;22;20020;-85
2023/07/12 12:49:22;;;;;;;10.27;6.65;;;31.70;70.90;;;;;;6244036;22;20023;-86
2023/07/12 12:51:56;;;;;;;9.25;5.97;;;31.90;69.10;;;;;;6265963;22;20028;-86
2023/07/12 12:54:26;;;;;;;8.23;5.88;;;32.00;69.00;;;;;;6263577;22;20477;-81
2023/07/12 12:56:53;;;;;;;6.13;4.90;;;32.10;67.00;;;;;;6265592;22;20019;-83
2023/07/12 12:59:23;;;;;;;7.82;4.03;;;32.30;63.70;;;;;;6233769;22;20061;-80
2023/07/12 13:01:53;;;;;;;8.93;4.88;;;32.30;63.10;;;;;;6239898;22;20023;-86
2023/07/12 13:04:23;;;;;;;8.27;4.90;;;32.20;64.50;;;;;;6261973;22;20031;-85
2023/07/12 13:06:53;;;;;;;7.85;5.22;;;32.30;65.30;;;;;;6264328;22;20028;-80
2023/07/12 13:09:24;;;;;;;10.77;6.40;;;32.10;65.70;;;;;;6239515;22;20034;-84
2023/07/12 13:11:54;;;;;;;8.77;6.00;;;32.00;65.90;;;;;;6262571;22;20182;-83
2023/07/12 13:14:24;;;;;;;7.53;5.80;;;31.90;66.20;;;;;;6239944;22;20034;-84
2023/07/12 13:16:54;;;;;;;9.27;6.28;;;31.90;67.00;;;;;;6263459;22;20019;-86
2023/07/12 13:19:24;;;;;;;9.07;6.03;;;32.00;67.20;;;;;;6263555;22;20102;-82
2023/07/12 13:21:54;;;;;;;7.95;5.75;;;31.90;66.60;;;;;;6238930;22;20028;-86
2023/07/12 13:24:21;;;;;;;8.20;6.03;;;31.90;67.10;;;;;;6237612;22;20023;-83
2023/07/12 13:26:48;;;;;;;8.38;6.20;;;32.00;67.60;;;;;;6264917;22;20365;-85
2023/07/12 13:29:19;;;;;;;7.70;5.40;;;32.10;69.40;;;;;;6240651;22;20463;-85
2023/07/12 13:31:46;;;;;;;7.03;5.57;;;32.30;69.60;;;;;;6239135;22;20094;-87
2023/07/12 13:34:13;;;;;;;7.10;5.50;;;32.50;69.90;;;;;;6263377;22;20124;-85
2023/07/12 13:36:46;;;;;;;14.02;6.32;;;32.50;69.30;;;;;;6258863;22;20115;-84
2023/07/12 13:39:18;;;;;;;7.60;5.57;;;32.50;68.30;;;;;;6259861;22;20097;-84
2023/07/12 13:41:49;;;;;;;7.10;5.53;;;32.30;67.20;;;;;;6262125;22;20420;-86
2023/07/12 13:44:18;;;;;;;7.80;6.22;;;32.10;68.40;;;;;;6263283;22;20750;-89
2023/07/12 13:46:48;;;;;;;9.18;6.20;;;32.00;68.00;;;;;;6257784;22;20660;-87
2023/07/12 13:49:17;;;;;;;10.82;6.18;;;32.00;68.00;;;;;;6238641;22;20074;-87
2023/07/12 13:51:45;;;;;;;12.05;6.15;;;31.90;68.20;;;;;;6235691;22;20318;-86
2023/07/12 13:54:13;;;;;;;8.95;5.88;;;31.90;69.20;;;;;;6239129;22;20024;-84
2023/07/12 13:56:40;;;;;;;8.38;5.93;;;31.90;68.60;;;;;;6235609;22;20273;-83
2023/07/12 13:59:10;;;;;;;10.32;5.47;;;31.80;69.20;;;;;;6260628;22;20358;-83
2023/07/12 14:01:41;;;;;;;7.13;5.10;;;31.80;69.30;;;;;;6261295;22;20026;-87
2023/07/12 14:04:16;;;;;;;9.63;5.78;;;31.80;69.70;;;;;;6262749;22;20028;-85
2023/07/12 14:06:46;;;;;;;8.80;5.88;;;31.70;69.90;;;;;;6261944;22;20027;-85
2023/07/12 14:09:17;;;;;;;9.30;5.70;;;31.80;69.60;;;;;;6236447;22;20024;-86
2023/07/12 14:11:45;;;;;;;8.85;5.80;;;31.80;69.70;;;;;;6259963;22;20455;-85
2023/07/12 14:14:13;;;;;;;10.00;6.50;;;31.80;69.30;;;;;;6261593;22;20818;-86
2023/07/12 14:16:40;;;;;;;7.30;5.40;;;32.00;69.40;;;;;;6261464;22;20020;-83
2023/07/12 14:19:08;;;;;;;6.53;4.95;;;32.10;68.80;;;;;;6234733;22;20098;-85
2023/07/12 14:21:35;;;;;;;10.90;5.75;;;32.30;69.20;;;;;;6264740;22;20099;-86
2023/07/12 14:24:03;;;;;;;7.85;5.55;;;32.40;68.50;;;;;;6236689;22;20356;-86
2023/07/12 14:26:30;;;;;;;7.30;5.78;;;32.50;69.10;;;;;;6262482;22;20027;-86
2023/07/12 14:28:57;;;;;;;6.72;5.45;;;32.50;69.90;;;;;;6263960;22;20112;-85
2023/07/12 14:31:33;;;;;;;8.13;5.93;;;32.60;69.20;;;;;;6263833;22;20024;-85
2023/07/12 14:34:00;;;;;;;7.88;5.65;;;32.50;69.90;;;;;;6264154;22;20026;-86
2023/07/12 14:36:28;;;;;;;7.45;5.70;;;32.50;68.70;;;;;;6238270;22;20081;-84
2023/07/12 14:38:56;;;;;;;8.02;5.43;;;32.50;69.00;;;;;;6264837;22;20431;-85
2023/07/12 14:41:29;;;;;;;6.13;4.68;;;32.60;69.30;;;;;;6261085;22;20031;-83
2023/07/12 14:44:11;;;;;;;8.00;4.53;;;32.60;67.20;;;;;;6262433;22;20027;-84
2023/07/12 14:46:39;;;;;;;6.57;5.20;;;32.50;67.30;;;;;;6262080;22;20459;-87
2023/07/12 14:49:07;;;;;;;5.82;5.10;;;32.50;68.10;;;;;;6263865;22;20026;-86
2023/07/12 14:51:35;;;;;;;6.40;4.20;;;32.40;66.20;;;;;;6261899;22;20404;-84
2023/07/12 14:54:06;;;;;;;7.85;4.45;;;32.40;66.80;;;;;;6262712;22;20024;-86